createdAt,value
2023-03-28T00:05:03.702Z,30.40
2023-03-28T00:10:08.238Z,28.70
2023-03-28T00:15:12.501Z,30.21
2023-03-28T00:20:17.907Z,27.06
2023-03-28T00:25:21.560Z,29.44
2023-03-28T00:30:27.348Z,28.05
2023-03-28T00:35:32.797Z,26.60
2023-03-28T00:40:39.510Z,29.58
2023-03-28T00:45:43.618Z,30.94
2023-03-28T00:50:49.760Z,28.02
2023-03-28T00:55:58.934Z,28.70
2023-03-28T01:01:03.150Z,28.89
2023-03-28T01:06:10.547Z,27.89
2023-03-28T01:11:15.196Z,26.79
2023-03-28T01:16:22.154Z,25.23
2023-03-28T01:22:06.010Z,25.52
2023-03-28T01:27:15.937Z,26.10
2023-03-28T01:32:57.696Z,28.13
2023-03-28T01:38:08.072Z,26.07
2023-03-28T01:43:33.613Z,24.45
2023-03-28T01:48:44.832Z,25.69
2023-03-28T01:53:58.290Z,26.25
2023-03-28T01:59:08.068Z,29.04
2023-03-28T02:04:20.455Z,28.92
2023-03-28T02:09:27.339Z,33.43
2023-03-28T02:14:38.334Z,36.79
2023-03-28T02:19:44.534Z,35.49
2023-03-28T02:24:49.993Z,36.78
2023-03-28T02:29:54.650Z,36.62
2023-03-28T02:34:58.455Z,37.76
2023-03-28T02:40:16.658Z,40.55
2023-03-28T02:45:48.091Z,42.92
2023-03-28T02:51:03.936Z,43.24
2023-03-28T02:56:16.967Z,44.10
2023-03-28T03:01:21.220Z,43.36
2023-03-28T03:06:24.904Z,44.69
2023-03-28T03:11:30.208Z,45.20
2023-03-28T03:16:34.357Z,45.50
2023-03-28T03:21:38.099Z,46.22
2023-03-28T03:26:43.522Z,46.76
2023-03-28T03:31:47.253Z,46.60
2023-03-28T03:36:50.960Z,46.89
2023-03-28T03:41:56.252Z,48.63
2023-03-28T03:46:59.916Z,48.19
2023-03-28T03:52:03.565Z,49.63
2023-03-28T03:57:08.915Z,50.63
2023-03-28T04:02:12.606Z,51.14
2023-03-28T04:07:16.589Z,50.92
2023-03-28T04:12:21.886Z,51.16
2023-03-28T04:17:25.617Z,50.98
2023-03-28T04:22:29.440Z,51.08
2023-03-28T04:27:34.778Z,51.86
2023-03-28T04:32:38.448Z,51.72
2023-03-28T04:37:42.155Z,52.29
2023-03-28T04:42:47.452Z,54.08
2023-03-28T04:47:51.166Z,55.75
2023-03-28T04:52:54.857Z,59.29
2023-03-28T04:58:00.161Z,59.94
2023-03-28T05:03:04.349Z,61.29
2023-03-28T05:08:08.132Z,63.19
2023-03-28T05:13:13.701Z,62.74
2023-03-28T05:18:17.568Z,62.79
2023-03-28T05:23:21.198Z,62.82
2023-03-28T05:28:26.610Z,64.36
2023-03-28T05:33:30.266Z,65.17
2023-03-28T05:38:33.908Z,64.28
2023-03-28T05:43:39.191Z,65.36
2023-03-28T05:48:42.861Z,65.79
2023-03-28T05:53:53.247Z,65.05
2023-03-28T05:58:58.576Z,66.49
2023-03-28T06:04:02.276Z,66.67
2023-03-28T06:09:05.997Z,66.15
2023-03-28T06:14:11.660Z,67.40
2023-03-28T06:19:18.292Z,66.15
2023-03-28T06:24:22.421Z,66.84
2023-03-28T06:29:27.761Z,66.47
2023-03-28T06:34:31.442Z,65.94
2023-03-28T06:39:35.104Z,66.85
2023-03-28T06:44:40.439Z,67.11
2023-03-28T06:49:44.088Z,68.28
2023-03-28T06:54:48.574Z,69.12
2023-03-28T06:59:53.981Z,69.79
2023-03-28T07:04:57.597Z,69.61
2023-03-28T07:10:01.236Z,69.48
2023-03-28T07:15:07.414Z,69.06
2023-03-28T07:20:11.708Z,68.10
2023-03-28T07:25:15.362Z,68.10
2023-03-28T07:30:20.982Z,69.14
2023-03-28T07:35:24.643Z,69.27
2023-03-28T07:40:28.258Z,69.13
2023-03-28T07:45:34.516Z,69.67
2023-03-28T07:50:37.495Z,70.19
2023-03-28T07:55:54.509Z,69.37
2023-03-28T08:01:06.097Z,69.46
2023-03-28T08:06:28.811Z,69.23
2023-03-28T08:11:35.957Z,69.83
2023-03-28T08:16:41.956Z,71.03
2023-03-28T08:21:45.591Z,70.79
2023-03-28T08:26:49.220Z,70.17
2023-03-28T08:31:54.562Z,70.76
2023-03-28T08:36:58.183Z,71.46
2023-03-28T08:42:33.975Z,72.72
2023-03-28T08:47:48.908Z,74.68
2023-03-28T08:52:53.424Z,74.58
2023-03-28T08:57:58.567Z,75.34
2023-03-28T09:03:10.334Z,76.89
2023-03-28T09:08:42.630Z,78.02
2023-03-28T09:13:57.670Z,78.65
2023-03-28T09:19:14.552Z,79.84
2023-03-28T09:24:35.570Z,78.05
2023-03-28T09:29:42.186Z,78.84
2023-03-28T09:34:51.163Z,78.92
2023-03-28T09:39:57.558Z,81.65
2023-03-28T09:45:08.490Z,80.65
2023-03-28T09:50:17.049Z,79.14
2023-03-28T09:55:24.082Z,78.66
2023-03-28T10:00:28.028Z,79.54
2023-03-28T10:05:38.393Z,79.30
2023-03-28T10:10:42.085Z,77.68
2023-03-28T10:15:47.841Z,77.70
2023-03-28T10:20:53.328Z,77.70
2023-03-28T10:26:02.151Z,79.56
2023-03-28T10:31:06.961Z,78.32
2023-03-28T10:36:24.404Z,78.18
2023-03-28T10:41:29.292Z,77.91
2023-03-28T10:46:35.905Z,79.33
2023-03-28T10:51:43.465Z,80.56
2023-03-28T10:56:50.557Z,84.02
2023-03-28T11:02:11.052Z,87.61
2023-03-28T11:07:23.611Z,89.09
2023-03-28T11:12:54.343Z,94.09
2023-03-28T11:18:12.634Z,96.01
2023-03-28T11:23:42.378Z,96.33
2023-03-28T11:29:02.792Z,96.36
2023-03-28T11:34:14.111Z,93.18
2023-03-28T11:39:27.138Z,93.18
2023-03-28T11:44:34.218Z,93.52
2023-03-28T11:49:41.770Z,94.91
2023-03-28T11:54:50.623Z,91.62
2023-03-28T11:59:59.086Z,90.40
2023-03-28T12:05:10.493Z,89.58
2023-03-28T12:10:21.554Z,87.28
2023-03-28T12:15:33.240Z,88.46
2023-03-28T12:20:40.481Z,87.50
2023-03-28T12:25:52.653Z,86.88
2023-03-28T12:31:04.042Z,88.01
2023-03-28T12:36:16.082Z,89.12
2023-03-28T12:41:24.655Z,90.03
2023-03-28T12:46:33.854Z,90.15
2023-03-28T12:51:40.252Z,89.27
2023-03-28T12:56:45.833Z,92.25
2023-03-28T13:01:51.502Z,90.91
2023-03-28T13:07:05.304Z,90.76
2023-03-28T13:12:26.049Z,91.61
2023-03-28T13:17:31.032Z,92.90
2023-03-28T13:22:39.821Z,95.37
2023-03-28T13:27:45.178Z,93.94
2023-03-28T13:32:51.665Z,96.56
2023-03-28T13:37:55.334Z,95.81
2023-03-28T13:43:01.031Z,96.74
2023-03-28T13:48:13.097Z,95.08
2023-03-28T13:53:17.193Z,97.35
2023-03-28T13:58:24.910Z,99.13
2023-03-28T14:03:28.613Z,98.94
2023-03-28T14:08:32.248Z,100.00
2023-03-28T14:13:39.236Z,97.83
2023-03-28T14:18:46.543Z,100.00
2023-03-28T14:24:01.094Z,100.00
2023-03-28T14:29:10.692Z,100.00
2023-03-28T14:34:21.828Z,100.00
2023-03-28T14:39:26.036Z,100.00
2023-03-28T14:44:36.040Z,100.00
2023-03-28T14:49:39.812Z,100.00
2023-03-28T14:54:47.108Z,100.00
2023-03-28T14:59:53.480Z,100.00
2023-03-28T15:04:57.807Z,100.00
2023-03-28T15:10:10.183Z,100.00
2023-03-28T15:15:23.690Z,100.00
2023-03-28T15:20:31.146Z,100.00
2023-03-28T15:25:36.159Z,100.00
2023-03-28T15:30:46.148Z,99.17
2023-03-28T15:35:49.918Z,100.00
2023-03-28T15:41:08.285Z,100.00
2023-03-28T15:46:15.795Z,100.00
2023-03-28T15:51:20.189Z,100.00
2023-03-28T15:56:27.746Z,100.00
2023-03-28T16:01:34.449Z,100.00
2023-03-28T16:06:42.615Z,100.00
2023-03-28T16:11:47.696Z,100.00
2023-03-28T16:16:56.826Z,100.00
2023-03-28T16:22:01.200Z,100.00
2023-03-28T16:27:05.119Z,100.00
2023-03-28T16:32:12.386Z,100.00
2023-03-28T16:37:16.016Z,100.00
2023-03-28T16:42:19.659Z,100.00
2023-03-28T16:47:25.001Z,100.00
2023-03-28T16:52:29.984Z,100.00
2023-03-28T16:57:33.757Z,100.00
2023-03-28T17:02:39.135Z,100.00
2023-03-28T17:07:42.923Z,100.00
2023-03-28T17:12:46.600Z,100.00
2023-03-28T17:17:51.896Z,100.00
2023-03-28T17:22:55.817Z,100.00
2023-03-28T17:27:59.506Z,100.00
2023-03-28T17:33:04.973Z,100.00
2023-03-28T17:38:08.702Z,100.00
2023-03-28T17:43:12.330Z,100.00
2023-03-28T17:48:17.609Z,100.00
2023-03-28T17:53:21.414Z,100.00
2023-03-28T17:58:25.247Z,100.00
2023-03-28T18:03:30.678Z,100.00
2023-03-28T18:08:34.874Z,100.00
2023-03-28T18:13:39.030Z,100.00
2023-03-28T18:18:44.353Z,100.00
2023-03-28T18:23:48.019Z,100.00
2023-03-28T18:28:51.834Z,100.00
2023-03-28T18:33:58.180Z,100.00
2023-03-28T18:39:02.041Z,100.00
2023-03-28T18:44:05.846Z,100.00
2023-03-28T18:49:12.601Z,100.00
2023-03-28T18:54:16.371Z,100.00
2023-03-28T18:59:19.977Z,98.46
2023-03-28T19:04:25.572Z,99.94
2023-03-28T19:09:29.320Z,100.00
2023-03-28T19:14:32.962Z,100.00
2023-03-28T19:19:38.259Z,99.26
2023-03-28T19:24:41.895Z,98.07
2023-03-28T19:29:45.763Z,98.17
2023-03-28T19:34:52.055Z,97.93
2023-03-28T19:39:54.925Z,97.97
2023-03-28T19:44:58.536Z,96.41
2023-03-28T19:50:03.956Z,97.79
2023-03-28T19:55:08.972Z,97.42
2023-03-28T20:00:13.313Z,97.28
2023-03-28T20:05:18.939Z,96.07
2023-03-28T20:10:22.594Z,95.72
2023-03-28T20:15:26.266Z,92.63
2023-03-28T20:20:31.622Z,90.23
2023-03-28T20:25:35.541Z,90.18
2023-03-28T20:30:39.208Z,92.20
2023-03-28T20:35:51.301Z,91.38
2023-03-28T20:40:54.985Z,90.96
2023-03-28T20:46:00.232Z,83.71
2023-03-28T20:51:07.723Z,83.75
2023-03-28T20:56:12.549Z,86.77
2023-03-28T21:01:16.935Z,91.23
2023-03-28T21:06:23.965Z,90.48
2023-03-28T21:11:29.274Z,90.83
2023-03-28T21:16:33.698Z,89.60
2023-03-28T21:21:39.025Z,92.14
2023-03-28T21:26:42.683Z,90.44
2023-03-28T21:31:46.398Z,87.58
2023-03-28T21:36:51.711Z,89.29
2023-03-28T21:41:55.657Z,88.77
2023-03-28T21:46:59.274Z,88.67
2023-03-28T21:52:04.618Z,88.32
2023-03-28T21:57:08.379Z,88.80
2023-03-28T22:02:12.078Z,87.55
2023-03-28T22:07:17.354Z,86.94
2023-03-28T22:12:21.006Z,87.06
2023-03-28T22:17:24.928Z,86.41
2023-03-28T22:22:30.192Z,88.50
2023-03-28T22:27:33.864Z,84.89
2023-03-28T22:32:37.648Z,88.00
2023-03-28T22:37:43.040Z,84.69
2023-03-28T22:42:46.728Z,86.55
2023-03-28T22:47:50.585Z,84.51
2023-03-28T22:52:57.328Z,82.14
2023-03-28T22:58:00.944Z,81.85
2023-03-28T23:03:04.733Z,83.83
2023-03-28T23:08:11.107Z,83.05
2023-03-28T23:13:14.742Z,83.14
2023-03-28T23:18:18.429Z,82.61
2023-03-28T23:23:23.930Z,83.91
2023-03-28T23:28:27.563Z,84.81
2023-03-28T23:33:31.235Z,86.21
2023-03-28T23:38:36.529Z,86.03
2023-03-28T23:43:40.317Z,82.08
2023-03-28T23:48:43.984Z,83.12
2023-03-28T23:53:49.268Z,81.72
2023-03-28T23:58:53.100Z,80.48
